createdAt,value
2022-08-24T00:01:35.675Z,19.20
2022-08-24T00:06:38.183Z,19.10
2022-08-24T00:11:40.798Z,19.10
2022-08-24T00:16:43.389Z,19.10
2022-08-24T00:21:45.958Z,19.10
2022-08-24T00:26:48.987Z,19.10
2022-08-24T00:31:51.718Z,19.00
2022-08-24T00:36:54.936Z,19.00
2022-08-24T00:41:57.618Z,19.00
2022-08-24T00:47:12.597Z,19.00
2022-08-24T00:52:33.509Z,19.00
2022-08-24T00:57:42.464Z,19.00
2022-08-24T01:02:48.953Z,18.90
2022-08-24T01:07:51.960Z,18.90
2022-08-24T01:13:01.573Z,18.90
2022-08-24T01:18:25.296Z,18.90
2022-08-24T01:23:44.141Z,19.00
2022-08-24T01:28:50.538Z,18.90
2022-08-24T01:33:55.867Z,18.90
2022-08-24T01:39:02.587Z,18.80
2022-08-24T01:44:05.607Z,18.90
2022-08-24T01:49:08.969Z,18.80
2022-08-24T01:54:12.410Z,18.90
2022-08-24T01:59:15.630Z,18.80
2022-08-24T02:04:20.237Z,18.90
2022-08-24T02:09:23.806Z,18.90
2022-08-24T02:14:32.964Z,18.90
2022-08-24T02:19:38.558Z,18.70
2022-08-24T02:24:42.654Z,18.70
2022-08-24T02:29:46.959Z,18.70
2022-08-24T02:34:49.709Z,18.70
2022-08-24T02:39:57.363Z,18.70
2022-08-24T02:45:02.040Z,18.70
2022-08-24T02:50:07.539Z,18.70
2022-08-24T02:55:15.265Z,18.70
2022-08-24T03:00:22.898Z,18.60
2022-08-24T03:05:29.688Z,18.50
2022-08-24T03:10:33.181Z,18.40
2022-08-24T03:15:36.153Z,18.40
2022-08-24T03:20:39.312Z,18.40
2022-08-24T03:25:42.269Z,18.40
2022-08-24T03:30:46.859Z,18.40
2022-08-24T03:35:53.425Z,18.40
2022-08-24T03:40:57.799Z,18.30
2022-08-24T03:46:03.014Z,18.30
2022-08-24T03:51:13.533Z,18.30
2022-08-24T03:56:17.102Z,18.30
2022-08-24T04:01:20.375Z,18.30
2022-08-24T04:06:25.191Z,18.20
2022-08-24T04:11:30.052Z,18.20
2022-08-24T04:16:33.751Z,18.10
2022-08-24T04:21:59.305Z,18.00
2022-08-24T04:27:02.306Z,18.00
2022-08-24T04:32:05.264Z,18.00
2022-08-24T04:37:11.325Z,17.90
2022-08-24T04:42:14.576Z,18.00
2022-08-24T04:47:18.905Z,18.00
2022-08-24T04:52:21.756Z,18.10
2022-08-24T04:57:24.278Z,18.40
2022-08-24T05:02:27.770Z,18.70
2022-08-24T05:07:32.334Z,18.40
2022-08-24T05:12:34.790Z,18.30
2022-08-24T05:17:41.492Z,18.40
2022-08-24T05:22:46.344Z,18.30
2022-08-24T05:27:49.144Z,18.30
2022-08-24T05:32:51.947Z,18.30
2022-08-24T05:37:55.202Z,18.40
2022-08-24T05:43:00.911Z,18.60
2022-08-24T05:48:03.920Z,18.60
2022-08-24T05:53:25.101Z,18.80
2022-08-24T05:58:30.757Z,18.80
2022-08-24T06:03:38.768Z,18.90
2022-08-24T06:08:47.120Z,18.80
2022-08-24T06:13:56.251Z,18.90
2022-08-24T06:19:06.538Z,18.90
2022-08-24T06:24:09.494Z,19.00
2022-08-24T06:29:12.278Z,19.60
2022-08-24T06:34:20.987Z,20.00
2022-08-24T06:39:24.181Z,20.20
2022-08-24T06:44:31.301Z,20.30
2022-08-24T06:49:44.855Z,20.40
2022-08-24T06:54:47.486Z,20.20
2022-08-24T06:59:50.071Z,20.60
2022-08-24T07:04:54.396Z,20.80
2022-08-24T07:10:15.290Z,20.80
2022-08-24T07:15:19.419Z,21.20
2022-08-24T07:20:32.589Z,22.20
2022-08-24T07:25:55.904Z,22.80
2022-08-24T07:30:58.829Z,22.70
2022-08-24T07:36:03.244Z,22.50
2022-08-24T07:41:35.358Z,21.60
2022-08-24T07:46:28.830Z,22.60
2022-08-24T07:56:42.556Z,22.10
2022-08-24T08:01:45.481Z,22.20
2022-08-24T08:06:48.009Z,22.70
2022-08-24T08:11:51.037Z,22.80
2022-08-24T08:16:53.697Z,23.10
2022-08-24T08:22:15.301Z,23.50
2022-08-24T08:27:37.837Z,23.80
2022-08-24T08:32:40.626Z,23.90
2022-08-24T08:37:43.297Z,23.90
2022-08-24T08:43:10.615Z,23.60
2022-08-24T08:48:39.944Z,23.60
2022-08-24T08:54:00.635Z,23.80
2022-08-24T08:59:30.550Z,23.80
2022-08-24T09:05:07.746Z,24.20
2022-08-24T09:10:10.432Z,24.30
2022-08-24T09:15:32.775Z,24.40
2022-08-24T09:20:53.756Z,24.50
2022-08-24T09:26:02.406Z,24.30
2022-08-24T09:31:17.537Z,24.40
2022-08-24T09:36:38.728Z,24.70
2022-08-24T09:42:00.163Z,25.00
2022-08-24T09:47:29.006Z,25.10
2022-08-24T09:52:50.544Z,25.10
2022-08-24T09:58:04.535Z,25.10
2022-08-24T10:03:36.457Z,25.30
2022-08-24T10:09:06.898Z,25.40
2022-08-24T10:14:09.432Z,25.50
2022-08-24T10:19:11.903Z,25.80
2022-08-24T10:24:35.696Z,26.10
2022-08-24T10:29:53.463Z,26.00
2022-08-24T10:35:04.843Z,25.60
2022-08-24T10:40:33.455Z,25.40
2022-08-24T10:45:58.009Z,25.30
2022-08-24T10:51:19.048Z,25.30
2022-08-24T10:56:40.469Z,25.40
2022-08-24T11:02:12.489Z,25.50
2022-08-24T11:07:18.082Z,25.60
2022-08-24T11:12:42.001Z,25.90
2022-08-24T11:18:00.681Z,26.00
2022-08-24T11:23:07.942Z,26.20
2022-08-24T11:28:20.549Z,26.20
2022-08-24T11:33:49.695Z,26.10
2022-08-24T11:39:10.385Z,26.40
2022-08-24T11:44:31.634Z,26.60
2022-08-24T11:49:49.383Z,26.60
2022-08-24T11:55:14.712Z,26.20
2022-08-24T12:00:23.562Z,26.20
2022-08-24T12:05:26.142Z,26.00
2022-08-24T12:11:01.500Z,26.10
2022-08-24T12:16:31.641Z,26.00
2022-08-24T12:21:39.078Z,26.00
2022-08-24T12:26:46.819Z,25.80
2022-08-24T12:32:02.053Z,25.90
2022-08-24T12:37:27.041Z,25.90
2022-08-24T12:42:39.890Z,26.00
2022-08-24T12:47:49.383Z,26.00
2022-08-24T12:53:30.230Z,26.00
2022-08-24T12:58:55.305Z,26.10
2022-08-24T13:04:31.574Z,26.30
2022-08-24T13:09:36.104Z,26.40
2022-08-24T13:14:39.117Z,26.50
2022-08-24T13:19:45.611Z,26.60
2022-08-24T13:24:58.139Z,26.30
2022-08-24T13:30:18.096Z,26.20
2022-08-24T13:35:58.603Z,26.30
2022-08-24T13:41:22.942Z,26.20
2022-08-24T13:46:50.643Z,26.10
2022-08-24T13:52:15.525Z,25.90
2022-08-24T13:57:35.752Z,25.90
2022-08-24T14:03:01.373Z,26.00
2022-08-24T14:08:10.531Z,26.00
2022-08-24T14:13:47.785Z,26.10
2022-08-24T14:18:56.579Z,26.30
2022-08-24T14:24:11.092Z,26.50
2022-08-24T14:29:19.950Z,26.30
2022-08-24T14:34:28.452Z,26.10
2022-08-24T14:39:58.526Z,26.10
2022-08-24T14:45:10.753Z,26.00
2022-08-24T14:50:22.537Z,26.00
2022-08-24T14:56:00.893Z,26.10
2022-08-24T15:01:42.519Z,26.10
2022-08-24T15:06:54.593Z,26.10
2022-08-24T15:12:10.879Z,26.00
2022-08-24T15:17:22.081Z,25.80
2022-08-24T15:22:37.023Z,25.60
2022-08-24T15:27:42.645Z,25.50
2022-08-24T15:32:53.149Z,25.50
2022-08-24T15:37:56.512Z,25.40
2022-08-24T15:43:04.055Z,25.30
2022-08-24T15:48:06.943Z,25.20
2022-08-24T15:53:36.788Z,25.10
2022-08-24T15:58:39.665Z,25.20
2022-08-24T16:03:42.839Z,25.20
2022-08-24T16:09:00.377Z,25.20
2022-08-24T16:14:03.358Z,25.10
2022-08-24T16:19:18.012Z,25.10
2022-08-24T16:24:20.402Z,25.00
2022-08-24T16:29:35.005Z,25.00
2022-08-24T16:34:41.102Z,25.00
2022-08-24T16:39:43.645Z,24.90
2022-08-24T16:44:46.162Z,24.90
2022-08-24T16:49:49.786Z,24.90
2022-08-24T16:54:52.340Z,24.90
2022-08-24T16:59:55.061Z,24.90
2022-08-24T17:04:57.540Z,24.80
2022-08-24T17:10:02.891Z,24.80
2022-08-24T17:15:06.919Z,24.70
2022-08-24T17:20:11.195Z,24.60
2022-08-24T17:25:13.940Z,24.50
2022-08-24T17:30:20.332Z,24.40
2022-08-24T17:35:23.331Z,24.20
2022-08-24T17:40:27.760Z,23.80
2022-08-24T17:45:30.304Z,23.30
2022-08-24T17:50:32.860Z,23.10
2022-08-24T17:55:35.277Z,22.90
2022-08-24T18:00:38.220Z,22.50
2022-08-24T18:05:41.249Z,22.20
2022-08-24T18:10:43.831Z,22.00
2022-08-24T18:15:46.308Z,22.00
2022-08-24T18:20:48.776Z,22.80
2022-08-24T18:25:51.843Z,22.40
2022-08-24T18:30:55.330Z,21.60
2022-08-24T18:41:39.550Z,21.40
2022-08-24T18:46:42.068Z,21.20
2022-08-24T18:51:45.721Z,21.10
2022-08-24T18:56:50.430Z,20.90
2022-08-24T19:02:16.263Z,20.70
2022-08-24T19:07:18.868Z,20.60
2022-08-24T19:12:22.024Z,20.60
2022-08-24T19:17:25.213Z,20.50
2022-08-24T19:22:28.049Z,20.30
2022-08-24T19:27:31.363Z,20.30
2022-08-24T19:32:39.505Z,20.20
2022-08-24T19:37:43.526Z,20.20
2022-08-24T19:42:49.431Z,20.20
2022-08-24T19:47:52.690Z,20.30
2022-08-24T19:53:01.502Z,20.10
2022-08-24T19:58:09.462Z,20.10
2022-08-24T20:03:12.166Z,20.20
2022-08-24T20:08:15.954Z,20.10
2022-08-24T20:13:18.582Z,20.00
2022-08-24T20:18:25.374Z,19.90
2022-08-24T20:23:29.532Z,19.80
2022-08-24T20:28:59.318Z,19.80
2022-08-24T20:34:02.129Z,19.70
2022-08-24T20:39:11.462Z,19.70
2022-08-24T20:44:14.014Z,19.60
2022-08-24T20:49:19.534Z,19.40
2022-08-24T20:54:22.264Z,19.40
2022-08-24T20:59:24.861Z,19.30
2022-08-24T21:04:27.541Z,19.20
2022-08-24T21:09:31.553Z,19.20
2022-08-24T21:14:34.126Z,19.10
2022-08-24T21:19:36.531Z,19.10
2022-08-24T21:24:39.072Z,19.00
2022-08-24T21:29:41.599Z,19.00
2022-08-24T21:34:45.243Z,18.90
2022-08-24T21:39:48.693Z,18.80
2022-08-24T21:44:51.585Z,18.80
2022-08-24T21:49:54.831Z,18.80
2022-08-24T21:54:57.576Z,18.70
2022-08-24T22:00:00.459Z,18.90
2022-08-24T22:05:02.935Z,19.30
2022-08-24T22:10:07.456Z,19.40
2022-08-24T22:15:13.272Z,19.40
2022-08-24T22:20:23.065Z,19.40
2022-08-24T22:25:26.221Z,19.50
2022-08-24T22:30:28.790Z,19.50
2022-08-24T22:35:31.907Z,19.60
2022-08-24T22:40:41.283Z,19.60
2022-08-24T22:45:43.879Z,19.70
2022-08-24T22:50:46.848Z,19.70
2022-08-24T22:55:49.235Z,19.90
2022-08-24T23:00:51.662Z,20.10
2022-08-24T23:05:54.312Z,20.10
2022-08-24T23:10:57.338Z,20.20
2022-08-24T23:16:01.708Z,20.10
2022-08-24T23:21:04.418Z,19.90
2022-08-24T23:26:09.464Z,19.90
2022-08-24T23:31:18.904Z,19.80
2022-08-24T23:36:24.951Z,19.60
2022-08-24T23:41:31.258Z,19.60
2022-08-24T23:46:34.327Z,19.60
2022-08-24T23:51:37.317Z,19.70
2022-08-24T23:56:43.075Z,19.80
